sensor_id;sensor_type;location;lat;lon;timestamp;pressure;altitude;pressure_sealevel;temperature
68127;BMP180;54931;52.098;21.006;2022-12-18T00:01:38;101493.40;;;-5.10
68127;BMP180;54931;52.098;21.006;2022-12-18T00:04:19;101496.20;;;-5.10
68127;BMP180;54931;52.098;21.006;2022-12-18T00:06:49;101495.20;;;-5.08
68127;BMP180;54931;52.098;21.006;2022-12-18T00:09:17;101500.00;;;-5.00
68127;BMP180;54931;52.098;21.006;2022-12-18T00:11:45;101503.40;;;-5.00
68127;BMP180;54931;52.098;21.006;2022-12-18T00:14:13;101506.80;;;-5.08
68127;BMP180;54931;52.098;21.006;2022-12-18T00:16:44;101508.80;;;-5.08
68127;BMP180;54931;52.098;21.006;2022-12-18T00:19:14;101508.80;;;-5.00
68127;BMP180;54931;52.098;21.006;2022-12-18T00:21:43;101517.20;;;-5.00
68127;BMP180;54931;52.098;21.006;2022-12-18T00:24:11;101519.60;;;-5.00
68127;BMP180;54931;52.098;21.006;2022-12-18T00:26:39;101513.40;;;-5.00
68127;BMP180;54931;52.098;21.006;2022-12-18T00:29:11;101510.60;;;-4.98
68127;BMP180;54931;52.098;21.006;2022-12-18T00:31:42;101520.60;;;-4.90
68127;BMP180;54931;52.098;21.006;2022-12-18T00:34:12;101526.00;;;-4.90
68127;BMP180;54931;52.098;21.006;2022-12-18T00:36:41;101527.60;;;-4.90
68127;BMP180;54931;52.098;21.006;2022-12-18T00:39:10;101523.60;;;-4.90
68127;BMP180;54931;52.098;21.006;2022-12-18T00:41:38;101532.40;;;-4.86
68127;BMP180;54931;52.098;21.006;2022-12-18T00:44:25;101539.40;;;-4.78
68127;BMP180;54931;52.098;21.006;2022-12-18T00:46:52;101534.20;;;-4.70
68127;BMP180;54931;52.098;21.006;2022-12-18T00:49:20;101540.20;;;-4.80
68127;BMP180;54931;52.098;21.006;2022-12-18T00:51:48;101542.60;;;-4.80
68127;BMP180;54931;52.098;21.006;2022-12-18T00:54:17;101545.80;;;-4.80
68127;BMP180;54931;52.098;21.006;2022-12-18T00:56:45;101549.00;;;-4.80
68127;BMP180;54931;52.098;21.006;2022-12-18T00:59:13;101557.00;;;-4.80
68127;BMP180;54931;52.098;21.006;2022-12-18T01:01:40;101552.80;;;-4.76
68127;BMP180;54931;52.098;21.006;2022-12-18T01:04:08;101556.20;;;-4.70
68127;BMP180;54931;52.098;21.006;2022-12-18T01:06:36;101559.80;;;-4.70
68127;BMP180;54931;52.098;21.006;2022-12-18T01:09:03;101561.40;;;-4.70
68127;BMP180;54931;52.098;21.006;2022-12-18T01:11:31;101563.20;;;-4.60
68127;BMP180;54931;52.098;21.006;2022-12-18T01:13:59;101570.80;;;-4.60
68127;BMP180;54931;52.098;21.006;2022-12-18T01:16:26;101578.80;;;-4.54
68127;BMP180;54931;52.098;21.006;2022-12-18T01:18:54;101574.80;;;-4.50
68127;BMP180;54931;52.098;21.006;2022-12-18T01:21:23;101583.60;;;-4.50
68127;BMP180;54931;52.098;21.006;2022-12-18T01:23:53;101586.20;;;-4.50
68127;BMP180;54931;52.098;21.006;2022-12-18T01:26:22;101586.00;;;-4.60
68127;BMP180;54931;52.098;21.006;2022-12-18T01:28:50;101587.00;;;-4.60
68127;BMP180;54931;52.098;21.006;2022-12-18T01:31:25;101581.40;;;-4.60
68127;BMP180;54931;52.098;21.006;2022-12-18T01:33:55;101583.20;;;-4.60
68127;BMP180;54931;52.098;21.006;2022-12-18T01:36:33;101593.00;;;-4.50
68127;BMP180;54931;52.098;21.006;2022-12-18T01:39:10;101598.80;;;-4.50
68127;BMP180;54931;52.098;21.006;2022-12-18T01:41:38;101604.60;;;-4.50
68127;BMP180;54931;52.098;21.006;2022-12-18T01:45:03;101601.40;;;-4.44
68127;BMP180;54931;52.098;21.006;2022-12-18T01:48:04;101603.80;;;-4.50
68127;BMP180;54931;52.098;21.006;2022-12-18T01:50:42;101608.40;;;-4.50
68127;BMP180;54931;52.098;21.006;2022-12-18T01:53:14;101603.00;;;-4.50
68127;BMP180;54931;52.098;21.006;2022-12-18T01:55:52;101609.00;;;-4.44
68127;BMP180;54931;52.098;21.006;2022-12-18T01:58:52;101614.80;;;-4.48
68127;BMP180;54931;52.098;21.006;2022-12-18T02:01:15;101619.00;;;-4.50
68127;BMP180;54931;52.098;21.006;2022-12-18T02:03:45;101622.40;;;-4.50
68127;BMP180;54931;52.098;21.006;2022-12-18T02:09:04;101635.00;;;-4.40
68127;BMP180;54931;52.098;21.006;2022-12-18T02:12:12;101644.60;;;-4.40
68127;BMP180;54931;52.098;21.006;2022-12-18T02:15:06;101645.60;;;-4.44
68127;BMP180;54931;52.098;21.006;2022-12-18T02:17:52;101646.20;;;-4.46
68127;BMP180;54931;52.098;21.006;2022-12-18T02:20:41;101645.60;;;-4.40
68127;BMP180;54931;52.098;21.006;2022-12-18T02:29:07;101668.20;;;-4.50
68127;BMP180;54931;52.098;21.006;2022-12-18T02:31:44;101670.60;;;-4.46
68127;BMP180;54931;52.098;21.006;2022-12-18T02:34:14;101671.60;;;-4.40
68127;BMP180;54931;52.098;21.006;2022-12-18T02:36:46;101673.40;;;-4.40
68127;BMP180;54931;52.098;21.006;2022-12-18T02:39:17;101670.80;;;-4.40
68127;BMP180;54931;52.098;21.006;2022-12-18T02:41:48;101677.80;;;-4.40
68127;BMP180;54931;52.098;21.006;2022-12-18T02:44:15;101684.60;;;-4.40
68127;BMP180;54931;52.098;21.006;2022-12-18T02:46:49;101689.00;;;-4.34
68127;BMP180;54931;52.098;21.006;2022-12-18T02:50:34;101694.40;;;-4.30
68127;BMP180;54931;52.098;21.006;2022-12-18T02:53:33;101691.40;;;-4.26
68127;BMP180;54931;52.098;21.006;2022-12-18T02:56:18;101692.60;;;-4.30
68127;BMP180;54931;52.098;21.006;2022-12-18T02:59:15;101697.40;;;-4.38
68127;BMP180;54931;52.098;21.006;2022-12-18T03:02:02;101703.80;;;-4.36
68127;BMP180;54931;52.098;21.006;2022-12-18T03:05:06;101708.00;;;-4.40
68127;BMP180;54931;52.098;21.006;2022-12-18T03:08:15;101708.20;;;-4.38
68127;BMP180;54931;52.098;21.006;2022-12-18T03:10:44;101712.00;;;-4.40
68127;BMP180;54931;52.098;21.006;2022-12-18T03:13:29;101717.60;;;-4.30
68127;BMP180;54931;52.098;21.006;2022-12-18T03:16:00;101725.00;;;-4.30
68127;BMP180;54931;52.098;21.006;2022-12-18T03:21:06;101731.40;;;-4.36
68127;BMP180;54931;52.098;21.006;2022-12-18T03:23:44;101729.80;;;-4.40
68127;BMP180;54931;52.098;21.006;2022-12-18T03:26:23;101733.60;;;-4.40
68127;BMP180;54931;52.098;21.006;2022-12-18T03:29:00;101732.60;;;-4.40
68127;BMP180;54931;52.098;21.006;2022-12-18T03:31:31;101739.60;;;-4.40
68127;BMP180;54931;52.098;21.006;2022-12-18T03:34:04;101746.20;;;-4.40
68127;BMP180;54931;52.098;21.006;2022-12-18T03:36:33;101750.00;;;-4.40
68127;BMP180;54931;52.098;21.006;2022-12-18T03:39:00;101754.60;;;-4.40
68127;BMP180;54931;52.098;21.006;2022-12-18T03:41:41;101754.60;;;-4.40
68127;BMP180;54931;52.098;21.006;2022-12-18T03:48:08;101758.00;;;-4.40
68127;BMP180;54931;52.098;21.006;2022-12-18T03:50:49;101752.60;;;-4.40
68127;BMP180;54931;52.098;21.006;2022-12-18T03:53:28;101756.00;;;-4.40
68127;BMP180;54931;52.098;21.006;2022-12-18T03:56:01;101762.20;;;-4.40
68127;BMP180;54931;52.098;21.006;2022-12-18T03:58:33;101771.60;;;-4.40
68127;BMP180;54931;52.098;21.006;2022-12-18T04:01:07;101771.60;;;-4.40
68127;BMP180;54931;52.098;21.006;2022-12-18T04:03:36;101776.20;;;-4.46
68127;BMP180;54931;52.098;21.006;2022-12-18T04:06:06;101780.40;;;-4.50
68127;BMP180;54931;52.098;21.006;2022-12-18T04:08:35;101778.20;;;-4.50
68127;BMP180;54931;52.098;21.006;2022-12-18T04:11:03;101786.00;;;-4.50
68127;BMP180;54931;52.098;21.006;2022-12-18T04:13:38;101787.40;;;-4.50
68127;BMP180;54931;52.098;21.006;2022-12-18T04:16:06;101787.20;;;-4.50
68127;BMP180;54931;52.098;21.006;2022-12-18T04:18:34;101795.80;;;-4.50
68127;BMP180;54931;52.098;21.006;2022-12-18T04:21:02;101795.60;;;-4.60
68127;BMP180;54931;52.098;21.006;2022-12-18T04:23:30;101797.60;;;-4.60
68127;BMP180;54931;52.098;21.006;2022-12-18T04:25:58;101800.20;;;-4.60
68127;BMP180;54931;52.098;21.006;2022-12-18T04:28:25;101803.40;;;-4.60
68127;BMP180;54931;52.098;21.006;2022-12-18T04:30:53;101810.00;;;-4.64
68127;BMP180;54931;52.098;21.006;2022-12-18T04:33:21;101809.00;;;-4.70
68127;BMP180;54931;52.098;21.006;2022-12-18T04:35:48;101810.60;;;-4.70
68127;BMP180;54931;52.098;21.006;2022-12-18T04:38:16;101815.00;;;-4.70
68127;BMP180;54931;52.098;21.006;2022-12-18T04:40:44;101822.40;;;-4.70
68127;BMP180;54931;52.098;21.006;2022-12-18T04:43:12;101826.80;;;-4.76
68127;BMP180;54931;52.098;21.006;2022-12-18T04:45:39;101829.80;;;-4.80
68127;BMP180;54931;52.098;21.006;2022-12-18T04:48:08;101839.00;;;-4.80
68127;BMP180;54931;52.098;21.006;2022-12-18T04:50:36;101835.80;;;-4.86
68127;BMP180;54931;52.098;21.006;2022-12-18T04:53:03;101839.00;;;-4.90
68127;BMP180;54931;52.098;21.006;2022-12-18T04:55:31;101839.00;;;-4.98
68127;BMP180;54931;52.098;21.006;2022-12-18T04:57:59;101843.00;;;-5.00
68127;BMP180;54931;52.098;21.006;2022-12-18T05:00:26;101841.80;;;-5.10
68127;BMP180;54931;52.098;21.006;2022-12-18T05:02:54;101840.80;;;-5.20
68127;BMP180;54931;52.098;21.006;2022-12-18T05:05:21;101846.40;;;-5.20
68127;BMP180;54931;52.098;21.006;2022-12-18T05:07:49;101841.60;;;-5.40
68127;BMP180;54931;52.098;21.006;2022-12-18T05:10:17;101854.60;;;-5.50
68127;BMP180;54931;52.098;21.006;2022-12-18T05:12:45;101861.60;;;-5.60
68127;BMP180;54931;52.098;21.006;2022-12-18T05:15:31;101867.40;;;-5.74
68127;BMP180;54931;52.098;21.006;2022-12-18T05:18:00;101872.20;;;-5.90
68127;BMP180;54931;52.098;21.006;2022-12-18T05:20:28;101882.00;;;-6.00
68127;BMP180;54931;52.098;21.006;2022-12-18T05:22:56;101888.40;;;-6.10
68127;BMP180;54931;52.098;21.006;2022-12-18T05:25:24;101889.00;;;-6.12
68127;BMP180;54931;52.098;21.006;2022-12-18T05:27:52;101896.00;;;-6.20
68127;BMP180;54931;52.098;21.006;2022-12-18T05:30:19;101888.60;;;-6.30
68127;BMP180;54931;52.098;21.006;2022-12-18T05:32:47;101886.40;;;-6.40
68127;BMP180;54931;52.098;21.006;2022-12-18T05:35:15;101894.40;;;-6.50
68127;BMP180;54931;52.098;21.006;2022-12-18T05:37:43;101900.60;;;-6.56
68127;BMP180;54931;52.098;21.006;2022-12-18T05:40:11;101907.80;;;-6.58
68127;BMP180;54931;52.098;21.006;2022-12-18T05:42:39;101910.00;;;-6.50
68127;BMP180;54931;52.098;21.006;2022-12-18T05:45:07;101900.00;;;-6.50
68127;BMP180;54931;52.098;21.006;2022-12-18T05:47:35;101901.60;;;-6.50
68127;BMP180;54931;52.098;21.006;2022-12-18T05:50:03;101906.60;;;-6.50
68127;BMP180;54931;52.098;21.006;2022-12-18T05:52:31;101908.40;;;-6.50
68127;BMP180;54931;52.098;21.006;2022-12-18T05:54:58;101910.20;;;-6.40
68127;BMP180;54931;52.098;21.006;2022-12-18T05:57:26;101908.40;;;-6.38
68127;BMP180;54931;52.098;21.006;2022-12-18T05:59:54;101908.60;;;-6.30
68127;BMP180;54931;52.098;21.006;2022-12-18T06:02:21;101911.40;;;-6.24
68127;BMP180;54931;52.098;21.006;2022-12-18T06:04:49;101917.00;;;-6.20
68127;BMP180;54931;52.098;21.006;2022-12-18T06:07:17;101923.00;;;-6.10
68127;BMP180;54931;52.098;21.006;2022-12-18T06:09:45;101937.60;;;-6.10
68127;BMP180;54931;52.098;21.006;2022-12-18T06:12:12;101941.80;;;-6.00
68127;BMP180;54931;52.098;21.006;2022-12-18T06:14:40;101953.40;;;-5.90
68127;BMP180;54931;52.098;21.006;2022-12-18T06:17:08;101954.60;;;-5.80
68127;BMP180;54931;52.098;21.006;2022-12-18T06:19:36;101953.00;;;-5.76
68127;BMP180;54931;52.098;21.006;2022-12-18T06:22:03;101961.40;;;-5.70
68127;BMP180;54931;52.098;21.006;2022-12-18T06:24:31;101973.40;;;-5.60
68127;BMP180;54931;52.098;21.006;2022-12-18T06:26:58;101971.40;;;-5.60
68127;BMP180;54931;52.098;21.006;2022-12-18T06:29:26;101977.40;;;-5.56
68127;BMP180;54931;52.098;21.006;2022-12-18T06:31:54;101987.40;;;-5.50
68127;BMP180;54931;52.098;21.006;2022-12-18T06:34:22;101994.80;;;-5.50
68127;BMP180;54931;52.098;21.006;2022-12-18T06:36:49;101999.60;;;-5.50
68127;BMP180;54931;52.098;21.006;2022-12-18T06:39:17;102004.80;;;-5.42
68127;BMP180;54931;52.098;21.006;2022-12-18T06:41:44;102001.00;;;-5.30
68127;BMP180;54931;52.098;21.006;2022-12-18T06:44:12;102001.60;;;-5.30
68127;BMP180;54931;52.098;21.006;2022-12-18T06:46:40;102005.60;;;-5.30
68127;BMP180;54931;52.098;21.006;2022-12-18T06:49:07;102010.20;;;-5.30
68127;BMP180;54931;52.098;21.006;2022-12-18T06:51:37;102018.00;;;-5.30
68127;BMP180;54931;52.098;21.006;2022-12-18T06:54:05;102026.20;;;-5.24
68127;BMP180;54931;52.098;21.006;2022-12-18T06:56:32;102027.60;;;-5.22
68127;BMP180;54931;52.098;21.006;2022-12-18T06:59:00;102035.80;;;-5.20
68127;BMP180;54931;52.098;21.006;2022-12-18T07:01:27;102036.20;;;-5.20
68127;BMP180;54931;52.098;21.006;2022-12-18T07:03:56;102047.20;;;-5.18
68127;BMP180;54931;52.098;21.006;2022-12-18T07:06:25;102048.40;;;-5.14
68127;BMP180;54931;52.098;21.006;2022-12-18T07:08:54;102048.20;;;-5.12
68127;BMP180;54931;52.098;21.006;2022-12-18T07:11:22;102047.00;;;-5.10
68127;BMP180;54931;52.098;21.006;2022-12-18T07:13:49;102054.80;;;-5.10
68127;BMP180;54931;52.098;21.006;2022-12-18T07:16:20;102056.00;;;-5.00
68127;BMP180;54931;52.098;21.006;2022-12-18T07:18:48;102055.20;;;-5.00
68127;BMP180;54931;52.098;21.006;2022-12-18T07:21:19;102061.60;;;-5.00
68127;BMP180;54931;52.098;21.006;2022-12-18T07:23:47;102065.60;;;-4.92
68127;BMP180;54931;52.098;21.006;2022-12-18T07:26:18;102069.80;;;-4.90
68127;BMP180;54931;52.098;21.006;2022-12-18T07:28:47;102073.80;;;-4.90
68127;BMP180;54931;52.098;21.006;2022-12-18T07:31:20;102078.60;;;-4.82
68127;BMP180;54931;52.098;21.006;2022-12-18T07:33:50;102086.60;;;-4.80
68127;BMP180;54931;52.098;21.006;2022-12-18T07:36:18;102077.80;;;-4.76
68127;BMP180;54931;52.098;21.006;2022-12-18T07:38:48;102083.40;;;-4.70
68127;BMP180;54931;52.098;21.006;2022-12-18T07:41:16;102084.40;;;-4.66
68127;BMP180;54931;52.098;21.006;2022-12-18T07:43:44;102082.40;;;-4.60
68127;BMP180;54931;52.098;21.006;2022-12-18T07:46:13;102089.80;;;-4.50
68127;BMP180;54931;52.098;21.006;2022-12-18T07:48:43;102095.60;;;-4.50
68127;BMP180;54931;52.098;21.006;2022-12-18T07:51:10;102099.80;;;-4.48
68127;BMP180;54931;52.098;21.006;2022-12-18T07:53:39;102105.40;;;-4.40
68127;BMP180;54931;52.098;21.006;2022-12-18T07:56:11;102104.60;;;-4.40
68127;BMP180;54931;52.098;21.006;2022-12-18T07:58:39;102105.20;;;-4.40
68127;BMP180;54931;52.098;21.006;2022-12-18T08:01:10;102110.80;;;-4.40
68127;BMP180;54931;52.098;21.006;2022-12-18T08:03:40;102117.20;;;-4.42
68127;BMP180;54931;52.098;21.006;2022-12-18T08:06:09;102126.60;;;-4.50
68127;BMP180;54931;52.098;21.006;2022-12-18T08:08:37;102134.80;;;-4.40
68127;BMP180;54931;52.098;21.006;2022-12-18T08:11:04;102135.60;;;-4.40
68127;BMP180;54931;52.098;21.006;2022-12-18T08:13:32;102140.20;;;-4.30
68127;BMP180;54931;52.098;21.006;2022-12-18T08:16:06;102148.20;;;-4.24
68127;BMP180;54931;52.098;21.006;2022-12-18T08:18:36;102146.80;;;-4.12
68127;BMP180;54931;52.098;21.006;2022-12-18T08:21:12;102150.00;;;-4.10
68127;BMP180;54931;52.098;21.006;2022-12-18T08:23:41;102146.20;;;-4.00
68127;BMP180;54931;52.098;21.006;2022-12-18T08:26:10;102145.20;;;-3.90
68127;BMP180;54931;52.098;21.006;2022-12-18T08:28:40;102160.00;;;-3.92
68127;BMP180;54931;52.098;21.006;2022-12-18T08:31:09;102164.20;;;-4.00
68127;BMP180;54931;52.098;21.006;2022-12-18T08:33:38;102168.20;;;-4.08
68127;BMP180;54931;52.098;21.006;2022-12-18T08:36:07;102174.80;;;-4.12
68127;BMP180;54931;52.098;21.006;2022-12-18T08:38:35;102177.60;;;-4.20
68127;BMP180;54931;52.098;21.006;2022-12-18T08:41:06;102182.60;;;-4.20
68127;BMP180;54931;52.098;21.006;2022-12-18T08:43:35;102184.80;;;-4.20
68127;BMP180;54931;52.098;21.006;2022-12-18T08:46:24;102182.40;;;-4.20
68127;BMP180;54931;52.098;21.006;2022-12-18T08:48:54;102173.20;;;-4.20
68127;BMP180;54931;52.098;21.006;2022-12-18T08:51:23;102179.00;;;-4.20
68127;BMP180;54931;52.098;21.006;2022-12-18T08:53:50;102178.20;;;-4.20
68127;BMP180;54931;52.098;21.006;2022-12-18T08:56:17;102182.20;;;-4.16
68127;BMP180;54931;52.098;21.006;2022-12-18T08:58:45;102187.60;;;-4.10
68127;BMP180;54931;52.098;21.006;2022-12-18T09:01:13;102188.40;;;-4.10
68127;BMP180;54931;52.098;21.006;2022-12-18T09:03:41;102189.40;;;-4.10
68127;BMP180;54931;52.098;21.006;2022-12-18T09:06:08;102196.80;;;-4.06
68127;BMP180;54931;52.098;21.006;2022-12-18T09:08:36;102200.40;;;-4.10
68127;BMP180;54931;52.098;21.006;2022-12-18T09:11:04;102200.00;;;-4.10
68127;BMP180;54931;52.098;21.006;2022-12-18T09:13:33;102204.20;;;-4.10
68127;BMP180;54931;52.098;21.006;2022-12-18T09:16:03;102204.60;;;-4.10
68127;BMP180;54931;52.098;21.006;2022-12-18T09:18:31;102208.60;;;-4.06
68127;BMP180;54931;52.098;21.006;2022-12-18T09:20:58;102208.20;;;-4.00
68127;BMP180;54931;52.098;21.006;2022-12-18T09:23:25;102210.40;;;-4.00
68127;BMP180;54931;52.098;21.006;2022-12-18T09:25:59;102212.20;;;-3.98
68127;BMP180;54931;52.098;21.006;2022-12-18T09:28:26;102212.20;;;-3.90
68127;BMP180;54931;52.098;21.006;2022-12-18T09:30:54;102220.40;;;-3.80
68127;BMP180;54931;52.098;21.006;2022-12-18T09:33:22;102215.40;;;-3.80
68127;BMP180;54931;52.098;21.006;2022-12-18T09:35:49;102222.00;;;-3.90
68127;BMP180;54931;52.098;21.006;2022-12-18T09:38:18;102218.20;;;-3.80
68127;BMP180;54931;52.098;21.006;2022-12-18T09:40:47;102226.40;;;-3.70
68127;BMP180;54931;52.098;21.006;2022-12-18T09:43:21;102228.20;;;-3.60
68127;BMP180;54931;52.098;21.006;2022-12-18T09:46:06;102233.20;;;-3.60
68127;BMP180;54931;52.098;21.006;2022-12-18T09:48:42;102230.80;;;-3.70
68127;BMP180;54931;52.098;21.006;2022-12-18T09:51:30;102225.00;;;-3.50
68127;BMP180;54931;52.098;21.006;2022-12-18T09:54:18;102228.00;;;-3.50
68127;BMP180;54931;52.098;21.006;2022-12-18T09:56:48;102229.00;;;-3.50
68127;BMP180;54931;52.098;21.006;2022-12-18T09:59:37;102235.00;;;-3.60
68127;BMP180;54931;52.098;21.006;2022-12-18T10:02:20;102231.80;;;-3.60
68127;BMP180;54931;52.098;21.006;2022-12-18T10:05:09;102227.20;;;-3.50
68127;BMP180;54931;52.098;21.006;2022-12-18T10:10:52;102228.00;;;-3.40
68127;BMP180;54931;52.098;21.006;2022-12-18T10:14:07;102233.20;;;-3.40
68127;BMP180;54931;52.098;21.006;2022-12-18T10:20:12;102244.00;;;-3.20
68127;BMP180;54931;52.098;21.006;2022-12-18T10:23:41;102244.60;;;-3.32
68127;BMP180;54931;52.098;21.006;2022-12-18T10:26:09;102246.00;;;-3.40
68127;BMP180;54931;52.098;21.006;2022-12-18T10:28:40;102251.80;;;-3.48
68127;BMP180;54931;52.098;21.006;2022-12-18T10:31:17;102253.60;;;-3.40
68127;BMP180;54931;52.098;21.006;2022-12-18T10:33:46;102253.00;;;-3.40
68127;BMP180;54931;52.098;21.006;2022-12-18T10:36:14;102247.20;;;-3.50
68127;BMP180;54931;52.098;21.006;2022-12-18T10:38:42;102242.00;;;-3.52
68127;BMP180;54931;52.098;21.006;2022-12-18T10:44:21;102251.80;;;-3.50
68127;BMP180;54931;52.098;21.006;2022-12-18T10:46:53;102250.00;;;-3.38
68127;BMP180;54931;52.098;21.006;2022-12-18T10:49:32;102251.60;;;-3.38
68127;BMP180;54931;52.098;21.006;2022-12-18T10:52:25;102249.40;;;-3.40
68127;BMP180;54931;52.098;21.006;2022-12-18T10:54:57;102248.40;;;-3.30
68127;BMP180;54931;52.098;21.006;2022-12-18T10:57:40;102246.20;;;-3.22
68127;BMP180;54931;52.098;21.006;2022-12-18T11:00:29;102245.60;;;-3.20
68127;BMP180;54931;52.098;21.006;2022-12-18T11:02:58;102254.80;;;-3.30
68127;BMP180;54931;52.098;21.006;2022-12-18T11:05:33;102257.00;;;-3.30
68127;BMP180;54931;52.098;21.006;2022-12-18T11:08:01;102261.60;;;-3.20
68127;BMP180;54931;52.098;21.006;2022-12-18T11:10:37;102261.60;;;-3.10
68127;BMP180;54931;52.098;21.006;2022-12-18T11:13:20;102258.80;;;-3.10
68127;BMP180;54931;52.098;21.006;2022-12-18T11:15:50;102253.00;;;-3.00
68127;BMP180;54931;52.098;21.006;2022-12-18T11:18:30;102259.00;;;-2.84
68127;BMP180;54931;52.098;21.006;2022-12-18T11:21:09;102265.00;;;-2.80
68127;BMP180;54931;52.098;21.006;2022-12-18T11:23:49;102260.00;;;-2.70
68127;BMP180;54931;52.098;21.006;2022-12-18T11:26:18;102260.00;;;-2.74
68127;BMP180;54931;52.098;21.006;2022-12-18T11:28:52;102261.40;;;-2.82
68127;BMP180;54931;52.098;21.006;2022-12-18T11:31:34;102270.40;;;-2.84
68127;BMP180;54931;52.098;21.006;2022-12-18T11:36:44;102262.00;;;-2.82
68127;BMP180;54931;52.098;21.006;2022-12-18T11:39:42;102260.60;;;-2.90
68127;BMP180;54931;52.098;21.006;2022-12-18T11:42:43;102263.80;;;-2.90
68127;BMP180;54931;52.098;21.006;2022-12-18T11:50:29;102262.00;;;-2.60
68127;BMP180;54931;52.098;21.006;2022-12-18T11:52:58;102263.20;;;-2.52
68127;BMP180;54931;52.098;21.006;2022-12-18T11:55:49;102268.20;;;-2.48
68127;BMP180;54931;52.098;21.006;2022-12-18T11:58:37;102271.20;;;-2.38
68127;BMP180;54931;52.098;21.006;2022-12-18T12:07:23;102275.80;;;-2.60
68127;BMP180;54931;52.098;21.006;2022-12-18T12:10:28;102274.80;;;-2.80
68127;BMP180;54931;52.098;21.006;2022-12-18T12:13:38;102275.80;;;-2.70
68127;BMP180;54931;52.098;21.006;2022-12-18T12:22:01;102280.20;;;-2.40
68127;BMP180;54931;52.098;21.006;2022-12-18T12:27:32;102273.40;;;-2.60
68127;BMP180;54931;52.098;21.006;2022-12-18T12:39:54;102309.60;;;-2.78
68127;BMP180;54931;52.098;21.006;2022-12-18T12:42:38;102305.80;;;-2.80
68127;BMP180;54931;52.098;21.006;2022-12-18T12:46:08;102307.60;;;-2.88
68127;BMP180;54931;52.098;21.006;2022-12-18T12:48:54;102305.20;;;-3.00
68127;BMP180;54931;52.098;21.006;2022-12-18T12:51:30;102317.40;;;-3.10
68127;BMP180;54931;52.098;21.006;2022-12-18T12:54:02;102314.40;;;-2.98
68127;BMP180;54931;52.098;21.006;2022-12-18T13:02:56;102333.60;;;-2.72
68127;BMP180;54931;52.098;21.006;2022-12-18T13:05:48;102339.20;;;-2.76
68127;BMP180;54931;52.098;21.006;2022-12-18T13:08:30;102345.80;;;-2.90
68127;BMP180;54931;52.098;21.006;2022-12-18T13:10:59;102349.60;;;-3.00
68127;BMP180;54931;52.098;21.006;2022-12-18T13:13:53;102349.40;;;-3.10
68127;BMP180;54931;52.098;21.006;2022-12-18T13:16:24;102354.00;;;-3.20
68127;BMP180;54931;52.098;21.006;2022-12-18T13:18:57;102355.20;;;-3.20
68127;BMP180;54931;52.098;21.006;2022-12-18T13:21:35;102358.80;;;-3.20
68127;BMP180;54931;52.098;21.006;2022-12-18T13:24:25;102355.40;;;-3.30
68127;BMP180;54931;52.098;21.006;2022-12-18T13:26:54;102355.20;;;-3.30
68127;BMP180;54931;52.098;21.006;2022-12-18T13:29:47;102358.40;;;-3.30
68127;BMP180;54931;52.098;21.006;2022-12-18T13:32:25;102369.60;;;-3.30
68127;BMP180;54931;52.098;21.006;2022-12-18T13:37:53;102357.40;;;-3.28
68127;BMP180;54931;52.098;21.006;2022-12-18T13:46:20;102366.20;;;-3.40
68127;BMP180;54931;52.098;21.006;2022-12-18T13:49:03;102367.40;;;-3.40
68127;BMP180;54931;52.098;21.006;2022-12-18T13:51:34;102370.20;;;-3.50
68127;BMP180;54931;52.098;21.006;2022-12-18T13:54:34;102373.40;;;-3.60
68127;BMP180;54931;52.098;21.006;2022-12-18T13:57:04;102377.60;;;-3.70
68127;BMP180;54931;52.098;21.006;2022-12-18T13:59:39;102373.20;;;-3.76
68127;BMP180;54931;52.098;21.006;2022-12-18T14:02:21;102373.80;;;-3.80
68127;BMP180;54931;52.098;21.006;2022-12-18T14:04:50;102375.60;;;-3.80
68127;BMP180;54931;52.098;21.006;2022-12-18T14:07:25;102382.60;;;-3.80
68127;BMP180;54931;52.098;21.006;2022-12-18T14:09:56;102390.00;;;-3.86
68127;BMP180;54931;52.098;21.006;2022-12-18T14:12:28;102382.60;;;-3.90
68127;BMP180;54931;52.098;21.006;2022-12-18T14:15:43;102384.00;;;-3.90
68127;BMP180;54931;52.098;21.006;2022-12-18T14:18:31;102392.20;;;-3.90
68127;BMP180;54931;52.098;21.006;2022-12-18T14:21:03;102401.60;;;-3.88
68127;BMP180;54931;52.098;21.006;2022-12-18T14:23:37;102400.40;;;-3.90
68127;BMP180;54931;52.098;21.006;2022-12-18T14:28:50;102409.40;;;-4.00
68127;BMP180;54931;52.098;21.006;2022-12-18T14:31:25;102404.60;;;-4.00
68127;BMP180;54931;52.098;21.006;2022-12-18T14:33:54;102402.20;;;-4.00
68127;BMP180;54931;52.098;21.006;2022-12-18T14:36:25;102400.80;;;-4.00
68127;BMP180;54931;52.098;21.006;2022-12-18T14:38:56;102401.80;;;-4.00
68127;BMP180;54931;52.098;21.006;2022-12-18T14:41:26;102406.40;;;-4.02
68127;BMP180;54931;52.098;21.006;2022-12-18T14:43:54;102412.40;;;-4.04
68127;BMP180;54931;52.098;21.006;2022-12-18T14:46:39;102413.60;;;-4.04
68127;BMP180;54931;52.098;21.006;2022-12-18T14:49:29;102410.40;;;-4.00
68127;BMP180;54931;52.098;21.006;2022-12-18T14:52:05;102407.60;;;-4.10
68127;BMP180;54931;52.098;21.006;2022-12-18T14:54:37;102418.00;;;-4.20
68127;BMP180;54931;52.098;21.006;2022-12-18T14:57:21;102420.40;;;-4.24
68127;BMP180;54931;52.098;21.006;2022-12-18T14:59:50;102423.60;;;-4.28
68127;BMP180;54931;52.098;21.006;2022-12-18T15:02:27;102420.20;;;-4.28
68127;BMP180;54931;52.098;21.006;2022-12-18T15:07:44;102423.20;;;-4.30
68127;BMP180;54931;52.098;21.006;2022-12-18T15:10:19;102424.20;;;-4.30
68127;BMP180;54931;52.098;21.006;2022-12-18T15:20:54;102437.40;;;-4.40
68127;BMP180;54931;52.098;21.006;2022-12-18T15:23:31;102436.60;;;-4.50
68127;BMP180;54931;52.098;21.006;2022-12-18T15:26:11;102439.20;;;-4.50
68127;BMP180;54931;52.098;21.006;2022-12-18T15:28:53;102441.60;;;-4.50
68127;BMP180;54931;52.098;21.006;2022-12-18T15:31:35;102434.40;;;-4.40
68127;BMP180;54931;52.098;21.006;2022-12-18T15:34:26;102431.80;;;-4.46
68127;BMP180;54931;52.098;21.006;2022-12-18T15:36:54;102430.40;;;-4.50
68127;BMP180;54931;52.098;21.006;2022-12-18T15:39:21;102432.60;;;-4.50
68127;BMP180;54931;52.098;21.006;2022-12-18T15:41:49;102440.00;;;-4.48
68127;BMP180;54931;52.098;21.006;2022-12-18T15:44:36;102441.80;;;-4.40
68127;BMP180;54931;52.098;21.006;2022-12-18T15:47:11;102440.40;;;-4.48
68127;BMP180;54931;52.098;21.006;2022-12-18T15:49:40;102445.40;;;-4.50